Nyk Constellation — V7NP4 — position and weather

sailwx.info

Track history (hours):
 
Tides and Currents Weather Stations Pressure Air Temp Water Temp Dewpoint Dewpoint Depression Visibility Wind Speed Wind Dir Waves Ship Positions

Nyk Constellation

Last reported at 2016-May-29 16:30 UTC. Time now 2016-May-29 23:04 UTC.
Position N 35°28' E 141°06'.

Length 294 m; draft 11.4 m.

Type: Cargo ship. MMSI: 538002992.

Date/timePositionNaut miles runAvg speedWind from/ knotsBaromVisibWave heightAir tempDewpointWater temp
2016-May-29 16:30N 35°28' E 141°06'2420.5
2016-May-29 15:21N 35°12' E 140°45'1619.9
2016-May-29 14:33N 35°04' E 140°28'1918.7
2016-May-29 13:33N 34°53' E 140°10'1717.1
2016-May-29 12:32N 34°49' E 139°49'1212.7
2016-May-29 11:33N 34°58' E 139°40'1514.8
2016-May-29 10:33N 35°12' E 139°46'1111.5
2016-May-29 09:33N 35°23' E 139°43'1211.6
2016-May-29 08:33N 35°33' E 139°50'4 3.6
2016-May-29 07:31N 35°36' E 139°46'0 0.0
2016-May-29 06:31N 35°36' E 139°46'0 0.0
2016-May-29 05:31N 35°36' E 139°46'0 0.0
2016-May-29 04:31N 35°36' E 139°46'0 0.0
2016-May-29 03:31N 35°36' E 139°46'0 0.0
2016-May-29 02:31N 35°36' E 139°46'0 0.0
2016-May-29 01:31N 35°36' E 139°46'0 0.0
2016-May-29 00:31N 35°36' E 139°46'3 3.6
2016-May-28 23:33N 35°34' E 139°49'1110.7
2016-May-28 22:34N 35°23' E 139°46'1212.2
2016-May-28 21:33N 35°11' E 139°47'9 9.1
2016-May-28 20:33N 35°03' E 139°42'1514.3
2016-May-28 19:29N 34°54' E 139°27'5616.6
2016-May-28 16:05N 34°24' E 138°29'917.9
2016-May-28 15:34N 34°25' E 138°18'169 6.3
2016-May-27 12:32N 33°52' E 134°57'1717.1
2016-May-27 11:34N 34°09' E 134°56'1413.9
2016-May-27 10:33N 34°22' E 135°01'1818.0
2016-May-27 09:33N 34°36' E 135°16'5 4.9
2016-May-27 08:28N 34°41' E 135°17'0 0.0
2016-May-27 07:10N 34°41' E 135°17'0 0.0
2016-May-27 06:28N 34°41' E 135°17'0 0.0
2016-May-27 05:28N 34°41' E 135°17'0 0.0
2016-May-27 04:28N 34°41' E 135°17'0 0.0
2016-May-27 03:22N 34°41' E 135°17'0 0.0
2016-May-27 02:28N 34°41' E 135°17'0 0.0
2016-May-27 01:28N 34°41' E 135°17'0 0.0
2016-May-27 00:28N 34°41' E 135°17'1 1.4
2016-May-26 23:33N 34°40' E 135°19'1110.6
2016-May-26 22:33N 34°31' E 135°12'1716.6
2016-May-26 21:33N 34°18' E 134°60'1110.7
2016-May-26 20:33N 34°07' E 134°59'1211.7
2016-May-26 19:31N 33°55' E 134°58'  
2016-May-23 15:14N 30°32' E 123°03'1420.2
2016-May-23 14:33N 30°31' E 122°47'2316.3
2016-May-23 13:10N 30°32' E 122°21'6 8.9
2016-May-23 12:33N 30°33' E 122°15'9 2.7
2016-May-23 09:13N 30°36' E 122°05'0 0.0
2016-May-23 00:10N 30°36' E 122°05'0 0.1
2016-May-22 23:33N 30°36' E 122°05'9 9.0
2016-May-22 22:31N 30°33' E 122°15'7 7.5
2016-May-22 21:33N 30°32' E 122°23'8 1.0
2016-May-22 14:17N 30°30' E 122°32'7 9.0
2016-May-22 13:27N 30°36' E 122°36'7 7.5
2016-May-22 12:30N 30°43' E 122°38'0 0.0
2016-May-22 01:29N 30°43' E 122°38'  
Track history (hours):
 
Tides and Currents Weather Stations Pressure Air Temp Water Temp Dewpoint Dewpoint Depression Visibility Wind Speed Wind Dir Waves Ship Positions

Nyk Constellation

Last reported at 2016-May-29 16:30 UTC. Time now 2016-May-29 23:04 UTC.
Position N 35°28' E 141°06'.

Length 294 m; draft 11.4 m.

Type: Cargo ship. MMSI: 538002992.

Date/timePositionNaut miles runAvg speedWind from/ knotsBaromVisibWave heightAir tempDewpointWater temp
2016-May-29 16:30N 35°28' E 141°06'2420.5
2016-May-29 15:21N 35°12' E 140°45'1619.9
2016-May-29 14:33N 35°04' E 140°28'1918.7
2016-May-29 13:33N 34°53' E 140°10'1717.1
2016-May-29 12:32N 34°49' E 139°49'1212.7
2016-May-29 11:33N 34°58' E 139°40'1514.8
2016-May-29 10:33N 35°12' E 139°46'1111.5
2016-May-29 09:33N 35°23' E 139°43'1211.6
2016-May-29 08:33N 35°33' E 139°50'4 3.6
2016-May-29 07:31N 35°36' E 139°46'0 0.0
2016-May-29 06:31N 35°36' E 139°46'0 0.0
2016-May-29 05:31N 35°36' E 139°46'0 0.0
2016-May-29 04:31N 35°36' E 139°46'0 0.0
2016-May-29 03:31N 35°36' E 139°46'0 0.0
2016-May-29 02:31N 35°36' E 139°46'0 0.0
2016-May-29 01:31N 35°36' E 139°46'0 0.0
2016-May-29 00:31N 35°36' E 139°46'3 3.6
2016-May-28 23:33N 35°34' E 139°49'1110.7
2016-May-28 22:34N 35°23' E 139°46'1212.2
2016-May-28 21:33N 35°11' E 139°47'9 9.1
2016-May-28 20:33N 35°03' E 139°42'1514.3
2016-May-28 19:29N 34°54' E 139°27'5616.6
2016-May-28 16:05N 34°24' E 138°29'917.9
2016-May-28 15:34N 34°25' E 138°18'169 6.3
2016-May-27 12:32N 33°52' E 134°57'1717.1
2016-May-27 11:34N 34°09' E 134°56'1413.9
2016-May-27 10:33N 34°22' E 135°01'1818.0
2016-May-27 09:33N 34°36' E 135°16'5 4.9
2016-May-27 08:28N 34°41' E 135°17'0 0.0
2016-May-27 07:10N 34°41' E 135°17'0 0.0
2016-May-27 06:28N 34°41' E 135°17'0 0.0
2016-May-27 05:28N 34°41' E 135°17'0 0.0
2016-May-27 04:28N 34°41' E 135°17'0 0.0
2016-May-27 03:22N 34°41' E 135°17'0 0.0
2016-May-27 02:28N 34°41' E 135°17'0 0.0
2016-May-27 01:28N 34°41' E 135°17'0 0.0
2016-May-27 00:28N 34°41' E 135°17'1 1.4
2016-May-26 23:33N 34°40' E 135°19'1110.6
2016-May-26 22:33N 34°31' E 135°12'1716.6
2016-May-26 21:33N 34°18' E 134°60'1110.7
2016-May-26 20:33N 34°07' E 134°59'1211.7
2016-May-26 19:31N 33°55' E 134°58'  
2016-May-23 15:14N 30°32' E 123°03'1420.2
2016-May-23 14:33N 30°31' E 122°47'2316.3
2016-May-23 13:10N 30°32' E 122°21'6 8.9
2016-May-23 12:33N 30°33' E 122°15'9 2.7
2016-May-23 09:13N 30°36' E 122°05'0 0.0
2016-May-23 00:10N 30°36' E 122°05'0 0.1
2016-May-22 23:33N 30°36' E 122°05'9 9.0
2016-May-22 22:31N 30°33' E 122°15'7 7.5
2016-May-22 21:33N 30°32' E 122°23'8 1.0
2016-May-22 14:17N 30°30' E 122°32'7 9.0
2016-May-22 13:27N 30°36' E 122°36'7 7.5
2016-May-22 12:30N 30°43' E 122°38'0 0.0
2016-May-22 01:29N 30°43' E 122°38'  

Dump ship's entire track history